createdAt,value
2023-03-25T00:01:33.424Z,19.80
2023-03-25T00:04:42.404Z,18.15
2023-03-25T00:07:47.224Z,18.70
2023-03-25T00:10:55.506Z,22.33
2023-03-25T00:13:58.876Z,19.80
2023-03-25T00:17:05.026Z,18.52
2023-03-25T00:20:11.486Z,20.52
2023-03-25T00:23:15.057Z,18.33
2023-03-25T00:26:19.660Z,18.77
2023-03-25T00:29:25.741Z,17.98
2023-03-25T00:32:29.770Z,23.15
2023-03-25T00:35:33.274Z,21.05
2023-03-25T00:38:38.037Z,19.92
2023-03-25T00:41:43.548Z,20.35
2023-03-25T00:44:57.909Z,20.27
2023-03-25T00:48:05.088Z,22.20
2023-03-25T00:51:13.652Z,23.95
2023-03-25T00:54:16.969Z,21.75
2023-03-25T00:57:24.984Z,21.38
2023-03-25T01:00:28.335Z,23.00
2023-03-25T01:03:31.630Z,21.15
2023-03-25T01:06:38.692Z,20.92
2023-03-25T01:09:46.355Z,21.58
2023-03-25T01:12:53.957Z,23.58
2023-03-25T01:16:05.017Z,21.40
2023-03-25T01:19:08.276Z,23.88
2023-03-25T01:22:11.509Z,23.17
2023-03-25T01:25:15.661Z,22.60
2023-03-25T01:28:20.766Z,23.50
2023-03-25T01:31:25.981Z,20.45
2023-03-25T01:34:29.167Z,27.17
2023-03-25T01:37:34.128Z,23.52
2023-03-25T01:40:37.314Z,26.73
2023-03-25T01:43:41.836Z,23.95
2023-03-25T01:46:45.486Z,22.05
2023-03-25T01:49:50.136Z,24.65
2023-03-25T01:52:53.857Z,22.48
2023-03-25T01:55:57.386Z,22.40
2023-03-25T01:59:05.303Z,22.48
2023-03-25T02:02:10.263Z,22.65
2023-03-25T02:05:19.706Z,24.80
2023-03-25T02:08:24.147Z,24.90
2023-03-25T02:11:29.437Z,26.00
2023-03-25T02:14:37.157Z,25.73
2023-03-25T02:18:00.581Z,25.33
2023-03-25T02:21:28.259Z,26.67
2023-03-25T02:24:57.928Z,27.88
2023-03-25T02:28:08.022Z,27.50
2023-03-25T02:31:25.416Z,27.75
2023-03-25T02:34:56.638Z,28.98
2023-03-25T02:38:18.595Z,27.33
2023-03-25T02:41:36.850Z,28.65
2023-03-25T02:44:43.335Z,29.52
2023-03-25T02:47:50.218Z,29.70
2023-03-25T02:50:56.941Z,25.08
2023-03-25T02:54:05.419Z,32.42
2023-03-25T02:57:13.522Z,25.03
2023-03-25T03:00:45.382Z,27.27
2023-03-25T03:03:48.873Z,25.40
2023-03-25T03:06:52.372Z,23.60
2023-03-25T03:10:08.704Z,27.02
2023-03-25T03:13:21.438Z,27.00
2023-03-25T03:16:32.720Z,19.75
2023-03-25T03:19:40.753Z,17.90
2023-03-25T03:22:52.810Z,19.55
2023-03-25T03:26:05.083Z,16.50
2023-03-25T03:29:14.824Z,15.85
2023-03-25T03:32:22.434Z,16.02
2023-03-25T03:35:31.790Z,15.32
2023-03-25T03:38:40.314Z,14.30
2023-03-25T03:41:49.413Z,16.25
2023-03-25T03:44:57.395Z,16.95
2023-03-25T03:48:03.607Z,14.57
2023-03-25T03:51:11.606Z,15.68
2023-03-25T03:54:18.697Z,14.68
2023-03-25T03:57:27.734Z,17.23
2023-03-25T04:00:37.522Z,16.35
2023-03-25T04:03:45.643Z,17.17
2023-03-25T04:06:56.989Z,16.17
2023-03-25T04:10:08.468Z,16.55
2023-03-25T04:13:15.627Z,18.63
2023-03-25T04:16:19.123Z,16.15
2023-03-25T04:19:23.846Z,17.15
2023-03-25T04:22:27.490Z,15.77
2023-03-25T04:25:32.456Z,14.63
2023-03-25T04:28:37.882Z,20.02
2023-03-25T04:31:46.336Z,16.48
2023-03-25T04:34:49.979Z,15.15
2023-03-25T04:37:57.402Z,16.20
2023-03-25T04:41:01.348Z,16.75
2023-03-25T04:44:08.026Z,18.75
2023-03-25T04:47:14.875Z,17.88
2023-03-25T04:50:22.512Z,19.85
2023-03-25T04:53:25.967Z,18.00
2023-03-25T04:56:29.472Z,20.65
2023-03-25T04:59:34.141Z,18.65
2023-03-25T05:02:38.088Z,17.83
2023-03-25T05:05:41.413Z,16.00
2023-03-25T05:08:44.741Z,16.65
2023-03-25T05:11:48.285Z,19.42
2023-03-25T05:14:53.059Z,18.52
2023-03-25T05:17:56.376Z,16.25
2023-03-25T05:21:02.709Z,16.77
2023-03-25T05:24:08.332Z,15.48
2023-03-25T05:27:11.693Z,18.40
2023-03-25T05:30:17.267Z,16.83
2023-03-25T05:33:20.791Z,19.88
2023-03-25T05:36:25.124Z,15.75
2023-03-25T05:39:28.518Z,18.80
2023-03-25T05:42:32.891Z,15.75
2023-03-25T05:45:37.894Z,15.38
2023-03-25T05:48:41.468Z,16.58
2023-03-25T05:51:45.194Z,18.08
2023-03-25T05:54:50.718Z,18.88
2023-03-25T05:57:54.124Z,22.02
2023-03-25T06:00:59.490Z,17.55
2023-03-25T06:04:03.590Z,15.13
2023-03-25T06:07:13.967Z,19.42
2023-03-25T06:10:18.579Z,18.40
2023-03-25T06:13:22.006Z,17.55
2023-03-25T06:16:29.784Z,17.02
2023-03-25T06:19:33.353Z,15.55
2023-03-25T06:22:38.949Z,16.02
2023-03-25T06:25:42.213Z,16.55
2023-03-25T06:28:46.120Z,19.60
2023-03-25T06:31:50.959Z,18.65
2023-03-25T06:34:54.792Z,18.02
2023-03-25T06:37:58.113Z,20.00
2023-03-25T06:41:08.881Z,20.00
2023-03-25T06:44:14.093Z,18.65
2023-03-25T06:47:24.822Z,20.90
2023-03-25T06:50:28.676Z,22.30
2023-03-25T06:53:32.839Z,22.88
2023-03-25T06:56:36.706Z,25.27
2023-03-25T06:59:40.318Z,20.33
2023-03-25T07:02:45.307Z,21.40
2023-03-25T07:05:49.751Z,22.30
2023-03-25T07:08:53.381Z,20.75
2023-03-25T07:11:56.726Z,20.83
2023-03-25T07:15:00.283Z,21.55
2023-03-25T07:18:05.968Z,20.15
2023-03-25T07:21:09.550Z,28.08
2023-03-25T07:24:13.048Z,21.10
2023-03-25T07:27:17.019Z,22.67
2023-03-25T07:30:27.827Z,19.40
2023-03-25T07:33:32.739Z,22.17
2023-03-25T07:36:36.353Z,19.25
2023-03-25T07:39:48.203Z,21.00
2023-03-25T07:42:51.777Z,19.45
2023-03-25T07:46:15.366Z,20.48
2023-03-25T07:49:21.352Z,20.50
2023-03-25T07:52:24.854Z,19.17
2023-03-25T07:55:28.609Z,19.77
2023-03-25T07:58:32.225Z,17.70
2023-03-25T08:01:38.566Z,18.05
2023-03-25T08:04:43.870Z,17.20
2023-03-25T08:07:47.636Z,18.30
2023-03-25T08:10:53.497Z,17.98
2023-03-25T08:13:57.080Z,17.23
2023-03-25T08:17:00.576Z,22.42
2023-03-25T08:20:06.865Z,19.42
2023-03-25T08:23:12.697Z,20.83
2023-03-25T08:26:16.543Z,21.27
2023-03-25T08:29:20.572Z,22.23
2023-03-25T08:32:24.681Z,20.85
2023-03-25T08:35:29.513Z,23.20
2023-03-25T08:38:34.776Z,23.27
2023-03-25T08:41:39.301Z,21.80
2023-03-25T08:44:42.889Z,18.75
2023-03-25T08:47:46.996Z,20.73
2023-03-25T08:50:53.466Z,22.27
2023-03-25T08:53:56.891Z,21.08
2023-03-25T08:57:00.374Z,21.35
2023-03-25T09:00:05.314Z,22.95
2023-03-25T09:03:08.957Z,24.88
2023-03-25T09:06:13.716Z,20.10
2023-03-25T09:09:18.027Z,23.33
2023-03-25T09:12:21.381Z,19.95
2023-03-25T09:15:25.626Z,19.80
2023-03-25T09:18:29.155Z,23.80
2023-03-25T09:21:36.388Z,20.40
2023-03-25T09:24:40.603Z,20.42
2023-03-25T09:27:44.265Z,21.00
2023-03-25T09:30:48.115Z,21.17
2023-03-25T09:33:51.940Z,19.38
2023-03-25T09:36:57.237Z,22.00
2023-03-25T09:40:00.623Z,23.05
2023-03-25T09:43:15.242Z,34.22
2023-03-25T09:46:19.024Z,19.33
2023-03-25T09:49:25.963Z,18.30
2023-03-25T09:52:34.310Z,17.73
2023-03-25T09:55:42.512Z,26.75
2023-03-25T09:58:48.093Z,26.83
2023-03-25T10:01:58.736Z,25.70
2023-03-25T10:05:22.244Z,29.63
2023-03-25T10:08:38.243Z,32.83
2023-03-25T10:11:52.282Z,31.77
2023-03-25T10:15:05.319Z,28.08
2023-03-25T10:18:41.003Z,28.42
2023-03-25T10:21:53.828Z,20.70
2023-03-25T10:25:02.331Z,19.02
2023-03-25T10:28:09.059Z,20.30
2023-03-25T10:31:20.292Z,20.98
2023-03-25T10:34:30.939Z,24.38
2023-03-25T10:37:39.450Z,22.38
2023-03-25T10:40:50.075Z,19.80
2023-03-25T10:43:53.886Z,17.40
2023-03-25T10:47:04.351Z,24.55
2023-03-25T10:50:15.950Z,19.23
2023-03-25T10:56:34.712Z,21.23
2023-03-25T10:59:47.639Z,22.77
2023-03-25T11:03:13.080Z,26.52
2023-03-25T11:06:33.743Z,22.17
2023-03-25T11:10:07.713Z,20.42
2023-03-25T11:13:22.175Z,23.92
2023-03-25T11:16:25.947Z,24.38
2023-03-25T11:19:36.263Z,20.25
2023-03-25T11:22:49.133Z,15.18
2023-03-25T11:26:04.698Z,18.70
2023-03-25T11:29:23.754Z,13.85
2023-03-25T11:32:37.311Z,18.17
2023-03-25T11:35:46.786Z,16.92
2023-03-25T11:39:01.859Z,19.52
2023-03-25T11:42:19.559Z,15.80
2023-03-25T11:45:29.816Z,16.13
2023-03-25T11:48:38.524Z,22.30
2023-03-25T11:51:43.130Z,18.77
2023-03-25T11:54:49.195Z,15.10
2023-03-25T11:57:58.791Z,14.30
2023-03-25T12:01:09.902Z,20.77
2023-03-25T12:04:21.707Z,12.30
2023-03-25T12:07:27.123Z,18.02
2023-03-25T12:10:44.637Z,13.85
2023-03-25T12:14:14.029Z,14.68
2023-03-25T12:17:27.527Z,15.40
2023-03-25T12:20:38.315Z,16.08
2023-03-25T12:23:51.304Z,14.68
2023-03-25T12:27:12.361Z,9.35
2023-03-25T12:30:34.992Z,11.90
2023-03-25T12:33:54.881Z,13.57
2023-03-25T12:37:14.386Z,31.13
2023-03-25T12:40:40.089Z,17.90
2023-03-25T12:43:56.215Z,15.18
2023-03-25T12:47:16.664Z,14.27
2023-03-25T12:53:50.913Z,13.90
2023-03-25T12:57:03.875Z,12.60
2023-03-25T13:00:23.788Z,16.75
2023-03-25T13:04:00.518Z,11.50
2023-03-25T13:07:12.967Z,16.88
2023-03-25T13:10:19.210Z,19.98
2023-03-25T13:13:25.889Z,16.15
2023-03-25T13:16:34.263Z,18.15
2023-03-25T13:19:44.350Z,15.27
2023-03-25T13:22:58.001Z,15.93
2023-03-25T13:26:06.528Z,14.00
2023-03-25T13:29:24.279Z,13.75
2023-03-25T13:32:34.513Z,12.68
2023-03-25T13:35:48.867Z,9.40
2023-03-25T13:38:58.680Z,16.08
2023-03-25T13:42:10.766Z,18.35
2023-03-25T13:45:19.160Z,18.27
2023-03-25T13:48:31.749Z,14.00
2023-03-25T13:51:39.141Z,13.23
2023-03-25T13:54:50.166Z,14.25
2023-03-25T13:58:30.196Z,19.75
2023-03-25T14:02:05.718Z,15.90
2023-03-25T14:05:44.140Z,11.82
2023-03-25T14:09:34.942Z,14.65
2023-03-25T14:12:48.719Z,15.32
2023-03-25T14:15:59.210Z,11.65
2023-03-25T14:22:20.259Z,26.15
2023-03-25T14:25:39.191Z,10.35
2023-03-25T14:28:47.771Z,11.23
2023-03-25T14:32:15.427Z,15.35
2023-03-25T14:35:48.342Z,15.50
2023-03-25T14:38:56.471Z,15.05
2023-03-25T14:42:04.436Z,14.88
2023-03-25T14:45:44.148Z,13.77
2023-03-25T14:48:51.994Z,15.83
2023-03-25T14:52:08.475Z,17.45
2023-03-25T14:55:22.363Z,17.80
2023-03-25T14:58:30.640Z,19.60
2023-03-25T15:01:38.166Z,29.75
2023-03-25T15:04:44.779Z,21.45
2023-03-25T15:07:53.245Z,20.65
2023-03-25T15:11:14.644Z,30.80
2023-03-25T15:14:30.561Z,24.35
2023-03-25T15:17:45.428Z,16.17
2023-03-25T15:20:50.660Z,14.10
2023-03-25T15:24:05.770Z,24.20
2023-03-25T15:27:31.510Z,30.33
2023-03-25T15:31:17.262Z,49.45
2023-03-25T15:34:47.729Z,43.75
2023-03-25T15:38:11.453Z,59.95
2023-03-25T15:41:31.157Z,49.90
2023-03-25T15:45:16.460Z,45.45
2023-03-25T15:48:53.522Z,20.13
2023-03-25T15:52:23.724Z,19.20
2023-03-25T15:55:36.335Z,32.78
2023-03-25T15:58:46.292Z,21.65
2023-03-25T16:02:00.632Z,21.00
2023-03-25T16:05:05.405Z,31.90
2023-03-25T16:08:24.976Z,19.25
2023-03-25T16:11:36.909Z,32.20
2023-03-25T16:14:44.281Z,20.42
2023-03-25T16:18:02.016Z,17.45
2023-03-25T16:21:08.606Z,25.23
2023-03-25T16:24:20.635Z,26.92
2023-03-25T16:27:36.670Z,37.55
2023-03-25T16:30:43.136Z,34.78
2023-03-25T16:33:46.548Z,32.38
2023-03-25T16:36:52.992Z,39.80
2023-03-25T16:39:59.580Z,75.20
2023-03-25T16:43:06.860Z,63.95
2023-03-25T16:46:13.835Z,68.72
2023-03-25T16:49:23.453Z,53.90
2023-03-25T16:52:29.198Z,62.07
2023-03-25T16:55:44.089Z,284.75
2023-03-25T16:58:58.013Z,258.10
2023-03-25T17:02:03.540Z,206.57
2023-03-25T17:05:17.631Z,186.95
2023-03-25T17:08:22.978Z,130.52
2023-03-25T17:11:31.568Z,121.00
2023-03-25T17:14:38.821Z,91.25
2023-03-25T17:17:47.427Z,94.50
2023-03-25T17:20:52.092Z,70.63
2023-03-25T17:23:57.010Z,63.67
2023-03-25T17:27:07.439Z,53.25
2023-03-25T17:33:34.044Z,59.25
2023-03-25T17:36:40.571Z,76.32
2023-03-25T17:39:50.725Z,132.38
2023-03-25T17:42:56.986Z,90.68
2023-03-25T17:46:01.944Z,70.25
2023-03-25T17:49:17.179Z,92.07
2023-03-25T17:52:21.487Z,99.78
2023-03-25T17:55:26.225Z,90.35
2023-03-25T17:58:31.674Z,92.22
2023-03-25T18:01:36.227Z,79.25
2023-03-25T18:04:39.702Z,88.78
2023-03-25T18:07:43.112Z,116.20
2023-03-25T18:10:47.117Z,83.93
2023-03-25T18:13:54.431Z,64.85
2023-03-25T18:16:58.191Z,49.55
2023-03-25T18:20:01.677Z,56.08
2023-03-25T18:23:05.343Z,61.58
2023-03-25T18:26:14.958Z,120.88
2023-03-25T18:29:23.160Z,81.80
2023-03-25T18:32:27.177Z,76.22
2023-03-25T18:35:30.690Z,68.22
2023-03-25T18:38:34.187Z,43.33
2023-03-25T18:41:37.593Z,29.42
2023-03-25T18:44:43.684Z,26.15
2023-03-25T18:47:47.947Z,29.40
2023-03-25T18:50:54.802Z,36.75
2023-03-25T18:53:58.722Z,36.65
2023-03-25T18:57:02.890Z,33.70
2023-03-25T19:00:19.021Z,24.63
2023-03-25T19:03:30.474Z,31.42
2023-03-25T19:06:34.121Z,19.85
2023-03-25T19:09:37.501Z,27.17
2023-03-25T19:12:41.079Z,31.83
2023-03-25T19:15:46.289Z,42.00
2023-03-25T19:18:49.972Z,62.22
2023-03-25T19:21:58.311Z,110.22
2023-03-25T19:25:01.923Z,229.40
2023-03-25T19:28:05.533Z,193.68
2023-03-25T19:31:19.010Z,121.63
2023-03-25T19:34:25.343Z,142.75
2023-03-25T19:37:38.421Z,105.85
2023-03-25T19:40:43.903Z,123.75
2023-03-25T19:43:50.462Z,97.85
2023-03-25T19:47:00.414Z,82.32
2023-03-25T19:50:20.912Z,61.83
2023-03-25T19:53:29.258Z,64.93
2023-03-25T19:56:34.261Z,92.60
2023-03-25T19:59:37.908Z,96.28
2023-03-25T20:02:44.337Z,173.82
2023-03-25T20:05:48.680Z,82.70
2023-03-25T20:08:52.585Z,107.95
2023-03-25T20:11:56.226Z,99.85
2023-03-25T20:14:59.769Z,71.30
2023-03-25T20:18:06.737Z,69.55
2023-03-25T20:21:11.867Z,53.97
2023-03-25T20:24:15.546Z,109.15
2023-03-25T20:27:19.165Z,69.55
2023-03-25T20:30:23.160Z,71.85
2023-03-25T20:33:28.558Z,65.18
2023-03-25T20:36:32.161Z,67.32
2023-03-25T20:39:35.610Z,59.75
2023-03-25T20:42:41.861Z,72.03
2023-03-25T20:45:45.499Z,73.03
2023-03-25T20:48:50.817Z,68.60
2023-03-25T20:51:54.630Z,68.85
2023-03-25T20:54:58.159Z,76.03
2023-03-25T20:58:01.673Z,68.93
2023-03-25T21:01:05.392Z,66.65
2023-03-25T21:04:11.652Z,77.95
2023-03-25T21:07:18.447Z,68.97
2023-03-25T21:10:21.828Z,70.40
2023-03-25T21:13:26.379Z,68.32
2023-03-25T21:16:29.825Z,70.15
2023-03-25T21:19:34.807Z,70.45
2023-03-25T21:22:44.825Z,74.90
2023-03-25T21:25:52.114Z,81.45
2023-03-25T21:28:57.234Z,79.75
2023-03-25T21:32:00.830Z,75.57
2023-03-25T21:35:07.084Z,73.82
2023-03-25T21:38:10.594Z,71.15
2023-03-25T21:41:14.043Z,69.90
2023-03-25T21:44:17.465Z,68.38
2023-03-25T21:47:20.917Z,59.55
2023-03-25T21:50:26.345Z,60.63
2023-03-25T21:53:31.241Z,61.47
2023-03-25T21:56:35.316Z,53.30
2023-03-25T21:59:39.370Z,54.67
2023-03-25T22:02:43.914Z,54.80
2023-03-25T22:05:48.741Z,48.45
2023-03-25T22:09:07.708Z,48.20
2023-03-25T22:12:51.267Z,48.00
2023-03-25T22:16:15.893Z,49.00
2023-03-25T22:19:43.006Z,49.38
2023-03-25T22:23:18.018Z,43.90
2023-03-25T22:26:41.457Z,45.85
2023-03-25T22:30:09.450Z,51.67
2023-03-25T22:33:24.960Z,49.70
2023-03-25T22:37:00.344Z,50.03
2023-03-25T22:40:18.286Z,49.55
2023-03-25T22:43:39.952Z,47.80
2023-03-25T22:47:01.283Z,57.08
2023-03-25T22:50:12.096Z,53.15
2023-03-25T22:53:44.167Z,47.28
2023-03-25T22:57:01.585Z,45.58
2023-03-25T23:00:26.520Z,31.40
2023-03-25T23:03:42.065Z,40.85
2023-03-25T23:07:14.342Z,38.83
2023-03-25T23:10:45.237Z,40.72
2023-03-25T23:14:00.469Z,43.78
2023-03-25T23:17:15.989Z,43.55
2023-03-25T23:20:33.800Z,42.78
2023-03-25T23:23:58.866Z,39.08
2023-03-25T23:27:16.305Z,42.63
2023-03-25T23:30:26.574Z,44.33
2023-03-25T23:33:44.762Z,39.20
2023-03-25T23:37:04.047Z,45.80
2023-03-25T23:40:27.617Z,46.35
2023-03-25T23:43:51.208Z,39.58
2023-03-25T23:47:22.439Z,44.08
2023-03-25T23:50:51.125Z,46.90
2023-03-25T23:54:15.329Z,39.38
2023-03-25T23:58:03.485Z,40.42
